.
WxDataArchive / Data Records for 2010-03-10
2010-03-09 March 2010 2010-03-11

Data Records for Wednesday, 10 March 2010

Time	Temp	Chill	HIndex	Humid	Dewpt	 Wind 	HiWind	WindDir	Rain 	Barom 
-----	----	-----	------	-----	-----	------	------	-------	-----	----- 
00:00	46.7	46.7	46.7	86	42.7	2	5	90	0.00	29.807 
00:05	46.5	46.5	46.5	86	42.5	1	4	90	0.00	29.807 
00:10	46.5	46.5	46.5	86	42.5	2	4	90	0.00	29.807 
00:15	46.5	46.5	46.5	86	42.5	1	3	90	0.00	29.799 
00:20	46.4	46.4	46.4	86	42.4	2	4	90	0.00	29.799 
00:25	46.2	46.2	46.2	86	42.2	1	3	112	0.00	29.799 
00:30	46.2	46.2	46.2	87	42.5	2	4	90	0.00	29.798 
00:35	46.1	46.1	46.1	87	42.4	1	3	90	0.00	29.798 
00:40	46.0	46.0	46.0	87	42.4	1	5	90	0.00	29.798 
00:45	45.8	45.8	45.8	87	42.2	2	4	90	0.00	29.795 
00:50	45.8	45.8	45.8	87	42.2	3	6	90	0.00	29.795 
00:55	45.8	45.8	45.8	87	42.2	2	5	90	0.00	29.795 
01:00	45.7	45.7	45.7	87	42.1	2	5	90	0.00	29.791 
01:05	45.7	45.7	45.7	87	42.1	2	6	90	0.00	29.791 
01:10	45.7	45.7	45.7	87	42.1	1	5	90	0.00	29.791 
01:15	45.7	45.7	45.7	88	42.4	2	7	90	0.00	29.784 
01:20	45.7	45.7	45.7	88	42.4	2	5	90	0.00	29.784 
01:25	45.7	45.7	45.7	88	42.4	2	4	90	0.00	29.784 
01:30	45.7	45.7	45.7	88	42.4	2	5	90	0.00	29.784 
01:35	45.7	45.7	45.7	88	42.4	2	5	90	0.00	29.784 
01:40	45.7	45.7	45.7	87	42.1	2	4	112	0.00	29.784 
01:45	45.7	45.7	45.7	87	42.1	2	4	90	0.00	29.783 
01:50	45.7	45.7	45.7	87	42.1	1	3	90	0.00	29.783 
01:55	45.7	45.7	45.7	87	42.1	2	5	90	0.00	29.783 
02:00	45.7	45.7	45.7	87	42.1	2	4	90	0.00	29.782 
02:05	45.7	45.7	45.7	87	42.1	2	4	90	0.00	29.782 
02:10	45.7	45.7	45.7	87	42.1	2	3	90	0.00	29.782 
02:15	45.7	45.7	45.7	87	42.1	2	4	90	0.00	29.780 
02:20	45.7	45.7	45.7	87	42.1	2	6	90	0.00	29.780 
02:25	45.7	45.7	45.7	87	42.1	2	5	90	0.00	29.780 
02:30	45.7	45.7	45.7	87	42.1	1	4	90	0.00	29.780 
02:35	45.7	45.7	45.7	87	42.1	2	4	90	0.00	29.780 
02:40	45.7	45.7	45.7	87	42.1	2	5	90	0.00	29.780 
02:45	45.5	45.5	45.5	87	41.9	0	3	112	0.00	29.765 
02:50	45.4	45.4	45.4	87	41.8	0	2	112	0.00	29.765 
02:55	45.2	45.2	45.2	88	41.9	0	2	112	0.00	29.765 
03:00	45.2	45.2	45.2	88	41.9	1	5	112	0.00	29.763 
03:05	45.2	45.2	45.2	88	41.9	2	5	90	0.00	29.763 
03:10	45.2	45.2	45.2	88	41.9	2	4	90	0.00	29.763 
03:15	45.4	45.4	45.4	88	42.1	2	5	90	0.00	29.763 
03:20	45.4	45.4	45.4	88	42.1	1	4	90	0.00	29.763 
03:25	45.2	45.2	45.2	88	41.9	1	4	90	0.00	29.763 
03:30	45.1	45.1	45.1	89	42.1	1	3	90	0.00	29.753 
03:35	44.9	44.9	44.9	89	41.9	1	3	90	0.01	29.753 
03:40	44.8	44.8	44.8	90	42.0	1	5	90	0.00	29.753 
03:45	44.6	44.6	44.6	90	41.9	1	3	90	0.00	29.748 
03:50	44.5	44.5	44.5	90	41.8	1	3	90	0.00	29.748 
03:55	44.5	44.5	44.5	91	42.0	1	3	90	0.00	29.748 
04:00	44.3	44.3	44.3	91	41.8	1	3	90	0.00	29.750 
04:05	44.2	44.2	44.2	91	41.7	1	5	90	0.00	29.750 
04:10	44.1	44.1	44.1	91	41.6	0	3	90	0.00	29.750 
04:15	43.9	43.9	43.9	91	41.4	0	3	90	0.00	29.745 
04:20	43.9	43.9	43.9	91	41.4	1	2	90	0.00	29.745 
04:25	43.9	43.9	43.9	92	41.7	0	2	90	0.00	29.745 
04:30	43.9	43.9	43.9	92	41.7	0	2	90	0.00	29.741 
04:35	43.9	43.9	43.9	92	41.7	0	3	90	0.00	29.741 
04:40	44.1	44.1	44.1	92	41.9	1	5	90	0.00	29.741 
04:45	44.2	44.2	44.2	92	42.0	1	4	90	0.00	29.738 
04:50	44.2	44.2	44.2	92	42.0	1	4	90	0.00	29.738 
04:55	44.3	44.3	44.3	92	42.1	2	4	90	0.00	29.738 
05:00	44.5	44.5	44.5	91	42.0	2	4	90	0.00	29.736 
05:05	44.6	44.6	44.6	91	42.1	2	4	112	0.00	29.736 
05:10	44.6	44.6	44.6	91	42.1	2	5	90	0.00	29.736 
05:15	44.8	44.8	44.8	91	42.3	1	4	90	0.00	29.738 
05:20	44.8	44.8	44.8	91	42.3	1	4	90	0.00	29.738 
05:25	44.8	44.8	44.8	90	42.0	1	4	68	0.00	29.738 
05:30	44.9	44.9	44.9	90	42.1	2	5	112	0.00	29.739 
05:35	44.9	44.9	44.9	90	42.1	1	5	90	0.00	29.739 
05:40	44.9	44.9	44.9	89	41.9	2	5	90	0.00	29.739 
05:45	45.1	45.1	45.1	88	41.8	2	4	112	0.00	29.745 
05:50	45.1	45.1	45.1	88	41.8	2	5	135	0.00	29.745 
05:55	45.1	45.1	45.1	88	41.8	1	4	112	0.02	29.745 
06:00	44.9	44.9	44.9	89	41.9	1	3	112	0.00	29.752 
06:05	44.8	44.8	44.8	89	41.8	1	3	90	0.00	29.752 
06:10	44.6	44.6	44.6	90	41.9	1	2	90	0.00	29.752 
06:15	44.6	44.6	44.6	90	41.9	0	3	90	0.00	29.750 
06:20	44.5	44.5	44.5	90	41.8	1	4	90	0.00	29.750 
06:25	44.5	44.5	44.5	91	42.0	1	2	90	0.00	29.750 
06:30	44.5	44.5	44.5	91	42.0	1	3	90	0.00	29.749 
06:35	44.5	44.5	44.5	91	42.0	1	5	90	0.00	29.749 
06:40	44.3	44.3	44.3	91	41.8	1	3	90	0.00	29.749 
06:45	44.3	44.3	44.3	91	41.8	1	3	90	0.00	29.742 
06:50	44.3	44.3	44.3	91	41.8	2	5	90	0.00	29.742 
06:55	44.3	44.3	44.3	91	41.8	2	5	90	0.00	29.742 
07:00	44.3	44.3	44.3	91	41.8	2	4	90	0.00	29.743 
07:05	44.3	44.3	44.3	91	41.8	1	4	90	0.00	29.743 
07:10	44.5	44.5	44.5	91	42.0	1	4	90	0.00	29.743 
07:15	44.5	44.5	44.5	91	42.0	1	2	90	0.00	29.750 
07:20	44.5	44.5	44.5	91	42.0	1	4	90	0.00	29.750 
07:25	44.5	44.5	44.5	91	42.0	1	4	90	0.00	29.750 
07:30	44.5	44.5	44.5	91	42.0	2	5	90	0.00	29.754 
07:35	44.5	44.5	44.5	91	42.0	1	3	112	0.00	29.754 
07:40	44.6	44.6	44.6	91	42.1	1	3	112	0.00	29.754 
07:45	44.6	44.6	44.6	91	42.1	2	4	68	0.00	29.758 
07:50	44.6	44.6	44.6	91	42.1	1	3	90	0.00	29.758 
07:55	44.6	44.6	44.6	91	42.1	1	2	90	0.00	29.758 
08:00	44.8	44.8	44.8	91	42.3	2	4	90	0.00	29.754 
08:05	44.8	44.8	44.8	91	42.3	2	5	90	0.00	29.754 
08:10	44.9	44.9	44.9	91	42.4	0	3	68	0.00	29.754 
08:15	44.9	44.9	44.9	91	42.4	1	4	90	0.00	29.756 
08:20	45.1	45.1	45.1	91	42.6	1	3	90	0.00	29.756 
08:25	45.2	45.2	45.2	91	42.7	1	3	90	0.00	29.756 
08:30	45.7	45.7	45.7	91	43.2	1	3	90	0.00	29.758 
08:35	45.8	45.8	45.8	90	43.0	2	6	90	0.00	29.758 
08:40	46.0	46.0	46.0	90	43.2	2	5	90	0.00	29.758 
08:45	46.1	46.1	46.1	90	43.3	1	4	90	0.01	29.758 
08:50	46.4	46.4	46.4	90	43.6	1	3	90	0.00	29.758 
08:55	46.7	46.7	46.7	90	43.9	1	2	90	0.00	29.758 
09:00	47.1	47.1	47.1	90	44.3	2	4	90	0.00	29.755 
09:05	47.4	47.4	47.4	90	44.6	2	4	90	0.00	29.755 
09:10	47.7	47.7	47.7	90	44.9	1	4	112	0.00	29.755 
09:15	48.5	48.5	48.5	90	45.7	1	4	112	0.00	29.754 
09:20	48.9	48.9	48.9	89	45.8	0	2	112	0.00	29.754 
09:25	49.2	49.2	49.2	89	46.1	0	3	112	0.00	29.754 
09:30	49.5	49.5	49.5	89	46.4	0	2	112	0.00	29.755 
09:35	49.8	49.8	49.8	89	46.7	0	2	112	0.00	29.755 
09:40	50.1	50.1	50.1	89	47.0	1	3	112	0.01	29.755 
09:45	50.2	50.2	50.2	89	47.1	1	3	135	0.00	29.755 
09:50	50.4	50.4	50.4	89	47.3	1	3	135	0.00	29.755 
09:55	50.5	50.5	50.5	90	47.7	0	2	180	0.00	29.755 
10:00	51.0	51.0	51.0	90	48.2	0	2	180	0.00	29.751 
10:05	51.1	51.1	51.1	90	48.3	0	3	68	0.00	29.751 
10:10	51.4	51.4	51.4	89	48.3	1	3	112	0.00	29.751 
10:15	51.6	51.6	51.6	88	48.2	1	3	112	0.00	29.751 
10:20	51.7	51.7	51.7	88	48.3	0	4	180	0.00	29.751 
10:25	51.9	51.9	51.9	87	48.2	1	2	90	0.00	29.751 
10:30	52.0	52.0	52.0	87	48.3	1	3	90	0.00	29.754 
10:35	52.3	52.3	52.3	86	48.2	1	5	90	0.00	29.754 
10:40	52.5	52.5	52.5	86	48.4	0	2	90	0.00	29.754 
10:45	52.8	52.8	52.8	85	48.4	1	4	90	0.00	29.754 
10:50	53.1	53.1	53.1	85	48.7	1	3	112	0.00	29.754 
10:55	53.5	53.5	53.5	85	49.1	1	4	112	0.00	29.754 
11:00	53.9	53.9	53.9	85	49.5	1	5	112	0.00	29.748 
11:05	54.5	54.5	54.5	84	49.8	2	5	90	0.00	29.748 
11:10	55.3	55.3	55.3	84	50.5	1	4	68	0.00	29.748 
11:15	56.0	56.0	56.0	83	50.9	1	4	45	0.00	29.747 
11:20	56.9	56.9	56.9	82	51.5	2	9	90	0.00	29.747 
11:25	57.0	57.0	57.0	80	50.9	4	10	90	0.00	29.747 
11:30	57.2	57.2	57.2	79	50.7	2	6	90	0.00	29.741 
11:35	57.3	57.3	57.3	80	51.2	1	3	90	0.00	29.741 
11:40	57.5	57.5	57.5	79	51.0	2	5	90	0.00	29.741 
11:45	57.3	57.3	57.3	79	50.8	1	6	112	0.00	29.739 
11:50	57.3	57.3	57.3	79	50.8	3	11	90	0.00	29.739 
11:55	57.3	57.3	57.3	79	50.8	1	5	90	0.00	29.739 
12:00	57.2	57.2	57.2	79	50.7	2	5	112	0.00	29.739 
12:05	57.3	57.3	57.3	81	51.5	2	4	90	0.00	29.739 
12:10	57.3	57.3	57.3	79	50.8	2	6	90	0.00	29.739 
12:15	57.6	57.6	57.6	79	51.1	3	9	112	0.00	29.741 
12:20	58.0	58.0	58.0	79	51.5	2	6	90	0.00	29.741 
12:25	58.4	58.4	58.4	78	51.6	3	8	112	0.00	29.741 
12:30	58.6	58.6	58.6	77	51.4	2	7	112	0.00	29.739 
12:35	58.9	58.9	58.9	77	51.7	1	3	68	0.00	29.739 
12:40	59.2	59.2	59.2	77	52.0	2	7	90	0.00	29.739 
12:45	59.5	59.5	59.5	76	51.9	2	6	90	0.00	29.731 
12:50	59.8	59.8	59.8	76	52.2	1	4	90	0.00	29.731 
12:55	60.1	60.1	60.1	74	51.8	2	7	90	0.00	29.731 
13:00	60.4	60.4	60.4	74	52.1	1	6	112	0.00	29.725 
13:05	60.4	60.4	60.4	72	51.3	2	5	90	0.00	29.725 
13:10	60.1	60.1	60.1	73	51.4	2	4	68	0.00	29.725 
13:15	59.8	59.8	59.8	73	51.1	2	6	90	0.00	29.723 
13:20	59.6	59.6	59.6	73	50.9	1	3	315	0.00	29.723 
13:25	59.8	59.8	59.8	74	51.5	1	3	68	0.00	29.723 
13:30	59.8	59.8	59.8	74	51.5	1	4	225	0.00	29.718 
13:35	60.1	60.1	60.1	73	51.4	2	6	90	0.00	29.718 
13:40	60.5	60.5	60.5	72	51.4	2	4	135	0.00	29.718 
13:45	60.9	60.9	60.9	72	51.8	1	4	135	0.00	29.716 
13:50	61.5	61.5	61.5	72	52.4	2	6	112	0.00	29.716 
13:55	61.8	61.8	61.8	71	52.3	1	4	135	0.00	29.716 
14:00	62.1	62.1	62.1	71	52.6	2	5	225	0.00	29.715 
14:05	62.0	62.0	62.0	69	51.7	2	5	90	0.00	29.715 
14:10	61.5	61.5	61.5	69	51.2	2	7	112	0.00	29.715 
14:15	61.3	61.3	61.3	69	51.0	2	6	292	0.00	29.716 
14:20	61.8	61.8	61.8	68	51.1	1	6	68	0.00	29.716 
14:25	62.7	62.7	62.7	66	51.2	2	7	112	0.00	29.716 
14:30	63.1	63.1	63.1	64	50.7	2	12	112	0.00	29.709 
14:35	63.2	63.2	63.2	63	50.4	3	7	90	0.00	29.709 
14:40	63.2	63.2	63.2	64	50.8	2	7	90	0.00	29.709 
14:45	63.2	63.2	63.2	65	51.2	1	5	248	0.00	29.704 
14:50	63.7	63.7	63.7	64	51.3	3	6	90	0.00	29.704 
14:55	63.7	63.7	63.7	63	50.9	2	7	68	0.00	29.704 
15:00	63.7	63.7	63.7	62	50.4	3	9	90	0.00	29.701 
15:05	63.5	63.5	63.5	63	50.7	2	7	112	0.00	29.701 
15:10	63.7	63.7	63.7	63	50.9	2	6	90	0.00	29.701 
15:15	63.7	63.7	63.7	63	50.9	2	5	270	0.00	29.701 
15:20	63.7	63.7	63.7	61	50.0	2	7	248	0.00	29.701 
15:25	64.0	64.0	64.0	63	51.1	2	6	270	0.00	29.701 
15:30	64.0	64.0	64.0	61	50.3	3	11	90	0.00	29.698 
15:35	64.0	64.0	64.0	61	50.3	3	9	112	0.00	29.698 
15:40	64.0	64.0	64.0	61	50.3	3	9	90	0.00	29.698 
15:45	64.0	64.0	64.0	60	49.8	4	10	90	0.00	29.696 
15:50	64.0	64.0	64.0	61	50.3	4	13	90	0.00	29.696 
15:55	64.3	64.3	64.3	61	50.6	2	6	135	0.00	29.696 
16:00	64.5	64.5	64.5	58	49.4	2	8	90	0.00	29.697 
16:05	64.5	64.5	64.5	60	50.3	2	5	68	0.00	29.697 
16:10	64.5	64.5	64.5	60	50.3	2	5	45	0.00	29.697 
16:15	64.3	64.3	64.3	59	49.7	3	9	90	0.00	29.698 
16:20	64.2	64.2	64.2	59	49.6	2	7	90	0.00	29.698 
16:25	64.2	64.2	64.2	59	49.6	2	6	90	0.00	29.698 
16:30	64.0	64.0	64.0	59	49.4	3	7	90	0.00	29.706 
16:35	63.9	63.9	63.9	60	49.7	3	7	90	0.00	29.706 
16:40	63.9	63.9	63.9	60	49.7	3	6	90	0.00	29.706 
16:45	63.9	63.9	63.9	60	49.7	2	5	112	0.00	29.706 
16:50	64.0	64.0	64.0	59	49.4	1	5	270	0.00	29.706 
16:55	64.2	64.2	64.2	59	49.6	2	6	112	0.00	29.706 
17:00	64.3	64.3	64.3	60	50.1	1	4	0	0.00	29.706 
17:05	64.2	64.2	64.2	59	49.6	2	5	90	0.00	29.706 
17:10	64.0	64.0	64.0	59	49.4	2	6	90	0.00	29.706 
17:15	64.0	64.0	64.0	59	49.4	1	4	90	0.00	29.710 
17:20	63.9	63.9	63.9	59	49.3	1	3	90	0.00	29.710 
17:25	63.9	63.9	63.9	59	49.3	1	4	90	0.00	29.710 
17:30	63.9	63.9	63.9	60	49.7	1	4	90	0.00	29.711 
17:35	63.7	63.7	63.7	60	49.5	2	6	90	0.00	29.711 
17:40	63.7	63.7	63.7	60	49.5	2	4	112	0.00	29.711 
17:45	63.5	63.5	63.5	60	49.4	2	4	90	0.00	29.714 
17:50	63.4	63.4	63.4	61	49.7	1	3	112	0.00	29.714 
17:55	63.2	63.2	63.2	62	50.0	1	4	112	0.00	29.714 
18:00	63.1	63.1	63.1	62	49.9	1	3	90	0.00	29.714 
18:05	62.9	62.9	62.9	62	49.7	1	3	112	0.00	29.714 
18:10	62.7	62.7	62.7	63	49.9	1	3	112	0.00	29.714 
18:15	62.6	62.6	62.6	63	49.8	1	3	135	0.00	29.719 
18:20	62.4	62.4	62.4	64	50.1	0	2	135	0.00	29.719 
18:25	62.1	62.1	62.1	65	50.2	0	1	135	0.00	29.719 
18:30	61.6	61.6	61.6	65	49.7	0	2	135	0.00	29.723 
18:35	61.3	61.3	61.3	66	49.8	0	1	135	0.00	29.723 
18:40	60.9	60.9	60.9	67	49.9	0	1	135	0.00	29.723 
18:45	60.4	60.4	60.4	68	49.8	0	1	135	0.00	29.724 
18:50	59.9	59.9	59.9	69	49.7	0	1	135	0.00	29.724 
18:55	59.6	59.6	59.6	70	49.8	0	2	135	0.00	29.724 
19:00	59.2	59.2	59.2	71	49.8	0	1	135	0.00	29.727 
19:05	58.9	58.9	58.9	72	49.9	0	1	135	0.00	29.727 
19:10	58.4	58.4	58.4	73	49.8	0	1	135	0.00	29.727 
19:15	58.1	58.1	58.1	73	49.5	0	0	---	0.00	29.734 
19:20	58.0	58.0	58.0	74	49.8	0	0	---	0.00	29.734 
19:25	57.6	57.6	57.6	74	49.4	0	2	135	0.00	29.734 
19:30	57.5	57.5	57.5	75	49.6	0	1	135	0.00	29.736 
19:35	57.3	57.3	57.3	76	49.8	0	1	135	0.00	29.736 
19:40	57.0	57.0	57.0	76	49.5	0	2	135	0.00	29.736 
19:45	56.9	56.9	56.9	77	49.8	0	1	135	0.00	29.738 
19:50	56.6	56.6	56.6	77	49.5	0	1	135	0.00	29.738 
19:55	56.5	56.5	56.5	77	49.4	0	1	135	0.00	29.738 
20:00	56.2	56.2	56.2	78	49.4	0	0	---	0.00	29.741 
20:05	55.9	55.9	55.9	79	49.5	0	0	---	0.00	29.741 
20:10	55.7	55.7	55.7	79	49.3	0	1	135	0.00	29.741 
20:15	55.6	55.6	55.6	80	49.5	0	2	135	0.00	29.740 
20:20	55.6	55.6	55.6	81	49.9	0	2	135	0.00	29.740 
20:25	55.6	55.6	55.6	80	49.5	0	1	135	0.00	29.740 
20:30	55.6	55.6	55.6	80	49.5	0	1	135	0.00	29.743 
20:35	55.4	55.4	55.4	80	49.3	0	1	135	0.00	29.743 
20:40	55.3	55.3	55.3	80	49.2	0	1	135	0.00	29.743 
20:45	54.8	54.8	54.8	80	48.7	0	0	---	0.00	29.745 
20:50	54.4	54.4	54.4	81	48.7	0	0	---	0.00	29.745 
20:55	53.8	53.8	53.8	82	48.4	0	0	---	0.00	29.745 
21:00	53.3	53.3	53.3	83	48.3	0	0	---	0.00	29.753 
21:05	52.9	52.9	52.9	84	48.2	0	0	---	0.00	29.753 
21:10	52.5	52.5	52.5	84	47.8	0	0	---	0.00	29.753 
21:15	52.0	52.0	52.0	85	47.6	0	1	135	0.00	29.752 
21:20	51.7	51.7	51.7	86	47.6	0	0	---	0.00	29.752 
21:25	51.4	51.4	51.4	86	47.4	0	0	---	0.00	29.752 
21:30	51.1	51.1	51.1	87	47.4	0	0	---	0.00	29.756 
21:35	50.8	50.8	50.8	87	47.1	0	0	---	0.00	29.756 
21:40	50.7	50.7	50.7	88	47.3	0	0	---	0.00	29.756 
21:45	50.5	50.5	50.5	88	47.1	0	0	---	0.00	29.763 
21:50	50.4	50.4	50.4	88	47.0	0	0	---	0.00	29.763 
21:55	50.2	50.2	50.2	89	47.1	0	0	---	0.00	29.763 
22:00	50.1	50.1	50.1	89	47.0	0	0	---	0.00	29.767 
22:05	49.9	49.9	49.9	90	47.1	0	0	---	0.00	29.767 
22:10	49.8	49.8	49.8	90	47.0	0	0	---	0.00	29.767 
22:15	49.9	49.9	49.9	90	47.1	0	1	135	0.00	29.766 
22:20	50.1	50.1	50.1	90	47.3	0	1	135	0.00	29.766 
22:25	50.1	50.1	50.1	90	47.3	0	1	135	0.00	29.766 
22:30	50.1	50.1	50.1	90	47.3	0	0	---	0.00	29.766 
22:35	49.9	49.9	49.9	90	47.1	0	0	---	0.00	29.766 
22:40	49.8	49.8	49.8	89	46.7	0	0	---	0.00	29.766 
22:45	49.5	49.5	49.5	89	46.4	0	0	---	0.00	29.767 
22:50	49.2	49.2	49.2	89	46.1	0	0	---	0.00	29.767 
22:55	48.9	48.9	48.9	89	45.8	0	0	---	0.00	29.767 
23:00	48.5	48.5	48.5	89	45.4	0	0	---	0.00	29.769 
23:05	48.0	48.0	48.0	89	44.9	0	0	---	0.00	29.769 
23:10	47.7	47.7	47.7	89	44.6	0	0	---	0.00	29.769 
23:15	47.4	47.4	47.4	90	44.6	0	0	---	0.00	29.767 
23:20	47.3	47.3	47.3	90	44.5	0	0	---	0.00	29.767 
23:25	47.0	47.0	47.0	90	44.2	0	0	---	0.00	29.767 
23:30	46.8	46.8	46.8	90	44.0	0	0	---	0.00	29.770 
23:35	46.5	46.5	46.5	91	44.0	0	0	---	0.00	29.770 
23:40	46.2	46.2	46.2	91	43.7	0	0	---	0.00	29.770 
23:45	46.1	46.1	46.1	91	43.6	0	0	---	0.00	29.775 
23:50	46.2	46.2	46.2	92	44.0	0	0	---	0.00	29.775 
23:55	46.7	46.7	46.7	93	44.8	0	0	---	0.00	29.775 

CoCoRaHS
IN-AL-39
A2 Web Hosting
Creative Commons License
GoDaddy
search engine by freefind advanced

loaded 2018-11-19 19:56:01 • last modified 2010-11-18 10:43:29
Privacy PolicyDisclaimer
• wx.awcolley.com is powered by PmWiki v.2002016 •
• all content (unless otherwise noted) © 2018 A W Colley